Sonic Adventure (DX): Overall Rankings

Records: Times | Rings | Scores | Races | Bosses | Freestyle
Leaders: Times | Rings | Scores | Races | Bosses | Freestyle | Overall
Rank Player Percent Points Date
1 Sonicspeedruner 97.9% 370 07-15-21
2 Gamepro011 97.6% 426 07-15-21
3 DarkPolarNight 96.3% 674 07-15-21
4 Jawzun 92.7% 1322 07-15-21
5 Dashjump 91.2% 1609 07-15-21
6 Avento128bits 89.2% 1963 07-15-21
7 DarkspinesSonic 89.2% 1974 07-15-21
8 ike6252 89.0% 2013 07-15-21
9 F-Man 87.1% 2348 07-15-21
10 Coolfansonic 87.0% 2378 07-15-21
11 TheRealShadnic 84.7% 2797 07-15-21
12 HyperSonic7701 84.3% 2859 07-15-21
13 Nim 83.5% 3012 07-15-21
14 yoshifan 82.2% 3256 07-15-21
15 frankoredstrato 81.7% 3343 07-15-21
16 francisco 80.8% 3510 07-15-21
17 Marth 80.4% 3570 07-15-21
18 InferSaime 79.3% 3785 07-15-21
19 PfoSonic 78.7% 3880 07-15-21
20 Paragod 78.4% 3950 07-15-21
21 THC98 77.5% 4108 07-15-21
22 Stefan 75.1% 4550 07-15-21
23 Dekuboy 74.0% 4754 07-15-21
24 RPGnutter 73.1% 4917 07-15-21
25 bertin 72.9% 4955 07-15-21
26 sonicam 70.9% 5322 07-15-21
27 drminus 69.3% 5610 07-15-21
28 chaos shadow 68.9% 5690 07-15-21
29 chainchump 65.3% 6343 07-15-21
30 Combo 64.9% 6408 07-15-21
31 SkyLights 63.7% 6629 07-15-21
32 xXMegaManXx 62.1% 6919 07-15-21
33 Diamond 61.8% 6990 07-15-21
34 Auriman1 59.7% 7369 07-15-21
35 GerbilSoft 59.7% 7371 07-15-21
36 OmegaDJ 59.6% 7386 07-15-21
37 magnum12 58.9% 7519 07-15-21
38 Thorn 56.6% 7928 07-15-21
39 P1 Pause 56.4% 7978 07-15-21
40 mike89 55.2% 8198 07-15-21
41 Dave Cramer 53.4% 8528 07-15-21
42 Groudon199 53.2% 8561 07-15-21
43 Parax 52.6% 8673 07-15-21
44 SPVLABS 52.2% 8735 07-15-21
45 Shadow Jacky 52.2% 8741 07-15-21
46 CoEmpathy 49.3% 9275 07-15-21
47 Zurggriff 48.7% 9375 07-15-21
48 Psymar 47.1% 9665 07-15-21
49 Niczur 47.0% 9688 07-15-21
50 Arch 46.3% 9810 07-15-21
51 Chao_Fan 45.6% 9954 07-15-21
52 mauserman 44.8% 10096 07-15-21
53 Quartz 44.3% 10184 07-15-21
54 teamblackarms 43.7% 10297 07-15-21
55 Psyknux 42.8% 10453 07-15-21
56 Cyan Ryan 42.4% 10534 07-15-21
57 James_Bertolli 42.4% 10535 07-15-21
58 NintenDan 42.1% 10592 07-15-21
59 Turbos 41.4% 10707 07-15-21
60 Webber3000 41.4% 10711 07-15-21
61 Ring Rush 41.2% 10748 07-15-21
62 Cream147 41.1% 10779 07-15-21
63 Fr3nZy 41.0% 10790 07-15-21
64 Siavash Tazari 40.9% 10800 07-15-21
65 videogamemaster777 40.9% 10803 07-15-21
66 buddychaos0415 40.3% 10924 07-15-21
67 SadisticMystic 39.7% 11031 07-15-21
68 ethmar 39.1% 11132 07-15-21
69 eggFL 38.9% 11171 07-15-21
70 Calfd 38.1% 11327 07-15-21
71 SB737 37.2% 11476 07-15-21
72 supersonic465 36.9% 11540 07-15-21
73 supersonicfan 36.3% 11657 07-15-21
74 FuzZerd 35.0% 11895 07-15-21
75 Aitamen 34.6% 11964 07-15-21
76 BigAL49 34.2% 12034 07-15-21
77 elecmouse101 34.1% 12052 07-15-21
78 danieldude 34.1% 12057 07-15-21
79 Austinf 33.2% 12209 07-15-21
80 metanightmare22 33.0% 12252 07-15-21
81 dabestgamer 32.7% 12304 07-15-21
82 MiStEr_ShAoLiN 32.4% 12366 07-15-21
83 Andrea Ritsu 31.6% 12515 07-15-21
84 Mastakirby 31.5% 12518 07-15-21
85 itsPersonnal 31.2% 12579 07-15-21
86 JamminX42 30.6% 12694 07-15-21
87 SilvertheAlmighty 30.5% 12717 07-15-21
88 Cybrax 30.5% 12719 07-15-21
89 WeegeeZV 30.3% 12753 07-15-21
90 VMU Player Banned 28.4% 13098 07-15-21
91 Staf 28.1% 13148 07-15-21
92 Omega Rafael Santos 27.8% 13201 07-15-21
93 The T 27.6% 13243 07-15-21
94 EngiNerd 27.5% 13266 07-15-21
95 lordmetalsonic 27.0% 13346 07-15-21
96 Hipertails12 26.5% 13440 07-15-21
97 welldooder64 26.3% 13471 07-15-21
98 GreatStar 26.1% 13515 07-15-21
99 The Great Lord Mick 26.0% 13529 07-15-21
100 Sondow 25.9% 13557 07-15-21
101 LinksDarkArrows 25.8% 13578 07-15-21
102 Skylace 24.7% 13770 07-15-21
103 a_moustache 23.8% 13940 07-15-21
104 Rolken 23.3% 14025 07-15-21
105 andy120195 22.6% 14155 07-15-21
106 Spinballwizard 21.6% 14334 07-15-21
107 Kogen Player Banned 21.6% 14335 07-15-21
108 Xia 21.5% 14351 07-15-21
109 f0rever_zer0 21.2% 14407 07-15-21
110 Twilisailor 21.2% 14420 07-15-21
111 Pokemonmaster888 21.0% 14445 07-15-21
112 Don 21.0% 14451 07-15-21
113 Cutiefox 20.9% 14469 07-15-21
114 Miles9999 20.9% 14474 07-15-21
115 Game_Complete 20.8% 14487 07-15-21
116 iden1 20.7% 14509 07-15-21
117 andres430 20.3% 14570 07-15-21
118 Cruizer 20.0% 14631 07-15-21
119 iSonicKid2K 19.9% 14642 07-15-21
120 SADXTryHard 19.6% 14702 07-15-21
121 GarnetPrincess 19.2% 14779 07-15-21
122 N 19.0% 14823 07-15-21
123 AxlThunder 18.7% 14867 07-15-21
124 knuckles_sonic8 18.4% 14921 07-15-21
125 Team_Yoshi 17.9% 15022 07-15-21
126 KinkyCadence 17.8% 15026 07-15-21
127 The Knuckles Chao 17.8% 15032 07-15-21
128 Termon 17.5% 15088 07-15-21
129 LittleBigness 17.4% 15113 07-15-21
130 FoxBoy 17.3% 15130 07-15-21
131 SonicWinDX 17.3% 15133 07-15-21
132 Zethor 17.2% 15152 07-15-21
133 Drakodan 16.5% 15276 07-15-21
134 Sonic Singularity 15.6% 15444 07-15-21
135 paulie9990 14.8% 15587 07-15-21
136 SilverSonic 14.2% 15689 07-15-21
137 MPit08 14.2% 15696 07-15-21
138 sonicd5 14.1% 15719 07-15-21
139 Mo Player Banned 13.8% 15769 07-15-21
140 koinu93 13.7% 15787 07-15-21
141 Cod4Scopes 13.3% 15864 07-15-21
142 HyperSonic64 13.2% 15879 07-15-21
143 booo95 13.1% 15895 07-15-21
144 Jerzia 13.1% 15901 07-15-21
145 Modest 13.1% 15903 07-15-21
146 Hunters13 13.0% 15913 07-15-21
147 Chawkk 12.8% 15944 07-15-21
148 SuperSonic101 12.8% 15958 07-15-21
149 Maxinfamily 12.6% 15981 07-15-21
150 R3FR4G 12.5% 16001 07-15-21
151 PsyBorg 12.4% 16029 07-15-21
152 LilZero 12.3% 16038 07-15-21
153 Kanimayo_Jp 12.3% 16046 07-15-21
154 Flying Fox 12.2% 16062 07-15-21
155 BrokenArthritis 12.1% 16082 07-15-21
156 Therio 11.7% 16152 07-15-21
157 sonicspeed 11.6% 16172 07-15-21
158 SonicAD 11.4% 16202 07-15-21
159 douglas 11.4% 16211 07-15-21
160 Matt_TY 11.2% 16248 07-15-21
161 thewaytodawnnn 11.1% 16260 07-15-21
162 ModifiedMonkee 11.0% 16284 07-15-21
163 Cooljay 10.6% 16361 07-15-21
164 SuperBlitzCraig 10.4% 16386 07-15-21
165 joecoolgames 10.4% 16393 07-15-21
166 SeaWolf 10.4% 16394 07-15-21
167 videogamer1014 10.2% 16430 07-15-21
168 AC-Tygo 10.0% 16469 07-15-21
169 welshmoose05 9.9% 16486 07-15-21
170 OddCook 9.7% 16512 07-15-21
171 crazy1993 9.6% 16543 07-15-21
172 TFEC Headshot 9.5% 16553 07-15-21
173 Mcshuggets 9.4% 16575 07-15-21
174 Mariobutch 9.2% 16600 07-15-21
175 niscool 9.1% 16626 07-15-21
176 Irregular Zero 9.0% 16639 07-15-21
177 nuckrieg 8.9% 16660 07-15-21
178 Shadowthegreat 8.8% 16680 07-15-21
179 superjupi 8.8% 16685 07-15-21
180 SirTobbii 8.7% 16702 07-15-21
181 sonamyfan666 8.5% 16736 07-15-21
182 iarebored 8.4% 16751 07-15-21
182 Powerjohn25 8.4% 16751 07-15-21
184 SaviourDC 8.3% 16768 07-15-21
184 SonicKnuckles 8.3% 16768 07-15-21
186 Badlex727 8.2% 16787 07-15-21
187 Werey 8.1% 16814 07-15-21
188 adf 8.0% 16824 07-15-21
189 Megaman EXE565 7.7% 16878 07-15-21
190 ArcticDragon 7.5% 16919 07-15-21
191 Platformer 7.4% 16945 07-15-21
192 timpkmn89 7.3% 16962 07-15-21
193 Swift Hobo 7.2% 16980 07-15-21
194 FocusSight64 7.1% 16985 07-15-21
195 wheatrich 7.0% 17002 07-15-21
196 Vicklaw 7.0% 17003 07-15-21
197 Rickyman48 6.9% 17035 07-15-21
198 KitsuneYamaro 6.8% 17045 07-15-21
199 Sm4sh 6.7% 17063 07-15-21
200 Triseena 6.5% 17101 07-15-21
201 CyberShadow 6.3% 17134 07-15-21
202 Destroyer121121 6.3% 17136 07-15-21
203 Starlight Sable 6.3% 17137 07-15-21
204 slade23 6.3% 17143 07-15-21
205 dShadow 6.2% 17156 07-15-21
206 IsisDazs 6.1% 17171 07-15-21
207 BlankTH 5.9% 17212 07-15-21
208 Monkeh 5.8% 17234 07-15-21
209 SonicU260 5.6% 17258 07-15-21
210 DaDude 5.5% 17283 07-15-21
211 Richied 5.5% 17287 07-15-21
212 Crispian 5.5% 17289 07-15-21
212 Swinkly 5.5% 17289 07-15-21
214 Zip 5.4% 17307 07-15-21
215 VeritasDL 5.1% 17362 07-15-21
216 tal39h 5.0% 17373 07-15-21
217 ALundstrom10 4.9% 17386 07-15-21
218 Kirbymon30 4.9% 17390 07-15-21
219 soniccoloursunleashed 4.8% 17417 07-15-21
220 Drflash55 4.7% 17429 07-15-21
221 Bass 4.6% 17443 07-15-21
222 neaolas 4.5% 17462 07-15-21
222 Yish 4.5% 17462 07-15-21
224 zapp 4.5% 17463 07-15-21
225 UninspiredUsername 4.4% 17478 07-15-21
226 Sonicsuperstar1 4.4% 17482 07-15-21
227 superiorsonic 4.4% 17485 07-15-21
228 gamefreak1292 4.4% 17493 07-15-21
229 Sora_yx 4.2% 17523 07-15-21
230 Chaos_Overlord 4.0% 17559 07-15-21
231 TakaRikka 3.9% 17577 07-15-21
232 Valfore 3.9% 17583 07-15-21
233 Dage4Aquatic 3.8% 17600 07-15-21
234 ShinigamiMachine 3.7% 17611 07-15-21
235 ArthurVGCP 3.7% 17623 07-15-21
236 Regano1000 3.6% 17632 07-15-21
237 MK 3.5% 17648 07-15-21
238 Ace747 3.5% 17658 07-15-21
239 Jua Rever 3.3% 17685 07-15-21
240 Illidan 3.1% 17732 07-15-21
241 Venick409 3.1% 17733 07-15-21
242 HHNNBBHHN 3.0% 17734 07-15-21
243 Brian_pso 3.0% 17739 07-15-21
244 nman36 3.0% 17741 07-15-21
244 Sithwarrior26 3.0% 17741 07-15-21
246 Egor305 2.9% 17769 07-15-21
247 TheChaosEmeraIds 2.8% 17773 07-15-21
248 ingx24 2.8% 17774 07-15-21
249 Nickson98 2.8% 17784 07-15-21
250 dekki1234 2.8% 17786 07-15-21
250 SkyBon 2.8% 17786 07-15-21
252 FSSRandomvids 2.7% 17791 07-15-21
253 Fozer 2.7% 17804 07-15-21
254 sonic29887 2.6% 17814 07-15-21
255 Colomb_30 2.6% 17815 07-15-21
256 TheUltraBlur 2.6% 17819 07-15-21
257 Aiko 2.6% 17820 07-15-21
258 1stKirbyever 2.5% 17827 07-15-21
259 TimTH 2.4% 17845 07-15-21
260 Th4tN1nj4Turtl3 2.3% 17873 07-15-21
261 Cort_pso 2.2% 17882 07-15-21
262 ieatatsonic 2.2% 17888 07-15-21
263 Doom-9 2.2% 17889 07-15-21
264 Mariosonic15 2.2% 17898 07-15-21
265 MStitomix 2.1% 17912 07-15-21
266 HermitHelmet 2.1% 17916 07-15-21
267 arcfx1985 2.0% 17920 07-15-21
268 SuperSonic71087 2.0% 17932 07-15-21
269 Got4n 1.9% 17937 07-15-21
270 Artie 1.9% 17938 07-15-21
271 Jose_15 1.9% 17946 07-15-21
272 Questionguy555 1.9% 17947 07-15-21
273 djmat 1.8% 17961 07-15-21
274 SuperSonicfan9595 1.8% 17966 07-15-21
275 sonicandamy 1.7% 17987 07-15-21
276 LancexExWx 1.7% 17989 07-15-21
277 Paixii 1.6% 17992 07-15-21
278 son1cgu1tar 1.6% 17997 07-15-21
279 Heroes_Hater 1.5% 18009 07-15-21
280 BallzeH 1.5% 18013 07-15-21
281 Jamixesa 1.5% 18016 07-15-21
282 Mankster101 1.5% 18020 07-15-21
283 BecauseWarAnvil 1.5% 18023 07-15-21
284 Xandre69 1.4% 18028 07-15-21
285 Crydio 1.4% 18036 07-15-21
285 Shanekilz 1.4% 18036 07-15-21
287 SpiritDragon1995 1.4% 18039 07-15-21
288 MarewBFN 1.3% 18051 07-15-21
289 stanski 1.3% 18056 07-15-21
290 Sonique Hedgehog 1.3% 18059 07-15-21
291 Blue Infamy 1.2% 18073 07-15-21
292 p0ker 1.2% 18075 07-15-21
293 ErrortheCucco 1.1% 18084 07-15-21
294 Arthas 1.1% 18087 07-15-21
294 Rikum22 1.1% 18087 07-15-21
296 sonic1001 1.1% 18095 07-15-21
297 AJSIV 1.1% 18098 07-15-21
298 syco1098 1.0% 18101 07-15-21
299 IDGeek121 1.0% 18103 07-15-21
299 Sonic the Hedgehod16 1.0% 18103 07-15-21
301 WingedInsignia 1.0% 18105 07-15-21
302 ASINISTERTACO 1.0% 18111 07-15-21
303 sonicfan9 0.9% 18118 07-15-21
304 BlackArmsShadow 0.9% 18127 07-15-21
305 themachoman202 0.9% 18128 07-15-21
306 shadowblast63 Player Banned 0.9% 18136 07-15-21
307 Fivavoa 0.8% 18137 07-15-21
308 Mr. Jones 0.8% 18139 07-15-21
309 Ben1502 0.8% 18140 07-15-21
309 Greham Adelphis 0.8% 18140 07-15-21
311 darkstarblaze 0.8% 18141 07-15-21
311 MastaToken 0.8% 18141 07-15-21
313 TommyeAsY 0.8% 18142 07-15-21
314 FlandreScarlet9999vr 0.8% 18148 07-15-21
314 ptorflaxendrosis 0.8% 18148 07-15-21
316 Gvozdevik 0.8% 18150 07-15-21
317 Zeldocto 0.8% 18152 07-15-21
318 Knuckles 0.8% 18154 07-15-21
319 BeeAwwb 0.7% 18156 07-15-21
320 KaM Mark MaK 0.7% 18161 07-15-21
321 ShadouZaHejjihoggu 0.7% 18163 07-15-21
322 Sonic The Star 0.7% 18172 07-15-21
323 darkersupershadic 0.6% 18173 07-15-21
324 Sogeking 0.6% 18176 07-15-21
325 Sonic62 0.6% 18177 07-15-21
326 SonicK100 0.6% 18180 07-15-21
327 Sarger001 0.6% 18181 07-15-21
328 Grady219 0.6% 18182 07-15-21
329 dragondragon18 0.6% 18183 07-15-21
330 Shadygamerfreak 0.6% 18184 07-15-21
331 Jawaah 0.6% 18187 07-15-21
332 Antek 0.6% 18191 07-15-21
333 Klaus 0.5% 18193 07-15-21
333 SilverK 0.5% 18193 07-15-21
333 SpinDashMaster 0.5% 18193 07-15-21
336 BioShadow 0.5% 18201 07-15-21
337 Videogamer123 0.5% 18206 07-15-21
338 IcKY 0.5% 18209 07-15-21
339 isaihtb11 0.4% 18216 07-15-21
339 oTaiIilLsS 0.4% 18216 07-15-21
341 OhNoes! 0.4% 18221 07-15-21
342 zaktu40 0.4% 18223 07-15-21
343 Mad Andy 0.4% 18224 07-15-21
343 S-MS32X-S 0.4% 18224 07-15-21
345 gaara1234 0.4% 18226 07-15-21
346 gamed00d 0.3% 18232 07-15-21
347 Mister_Slick 0.3% 18237 07-15-21
348 Sonic06Fan 0.3% 18241 07-15-21
349 Rush Hero 0.3% 18243 07-15-21
350 ChaosNexuss 0.3% 18244 07-15-21
351 SonicMega167 0.2% 18249 07-15-21
352 sonknuck23 0.2% 18252 07-15-21
353 Iwannabelink 0.2% 18253 07-15-21
354 DanielTheFalcon 0.2% 18262 07-15-21
354 gamer1245 0.2% 18262 07-15-21
356 Burningskull123 0.1% 18268 07-15-21
357 Sonicontherun 0.1% 18280 07-15-21
358 Lil_Dude 0.1% 18282 07-15-21
359 antiwwe 0.0% 18286 07-15-21
360 Cbwade15 0.0% 18290 07-15-21
360 Genuine Hedgehog 0.0% 18290 07-15-21
362 Tyrouble 0.0% 18294 07-15-21
363 MakoHNM 0.0% 18301 07-15-21
363 MegabombBlade 0.0% 18301 07-15-21
363 neji_hyuuga 0.0% 18301 07-15-21
363 Over 0.0% 18301 07-15-21
363 sdj6707 Player Banned 0.0% 18301 07-15-21
363 Tran Sonic Fan Player Banned 0.0% 18301 07-15-21

This page is using the New Data Table System. [FUTURE]

Game ID: 3 | Category ID: 10
Hits: 80,363 | Hits This Month: 137 | DB Calls: 21 | Mem Usage: 1.12 MB | Time: 0.07s | Printable

The Sonic Center v3.9
Copyright 2003-2011 by The Sonic Center Team.